createdAt,value
2022-09-14T00:00:36.871Z,99995.84
2022-09-14T00:03:28.272Z,99998.84
2022-09-14T00:05:58.740Z,99991.19
2022-09-14T00:08:28.722Z,99983.28
2022-09-14T00:10:58.920Z,99985.72
2022-09-14T00:13:29.099Z,99982.00
2022-09-14T00:16:03.819Z,99984.41
2022-09-14T00:18:36.371Z,99981.16
2022-09-14T00:21:08.750Z,99971.50
2022-09-14T00:23:40.669Z,99967.56
2022-09-14T00:26:12.999Z,99964.59
2022-09-14T00:28:45.540Z,99967.34
2022-09-14T00:31:16.108Z,99965.25
2022-09-14T00:33:49.813Z,99959.72
2022-09-14T00:36:22.049Z,99965.59
2022-09-14T00:38:53.142Z,99959.22
2022-09-14T00:41:25.639Z,99961.66
2022-09-14T00:43:59.040Z,99968.97
2022-09-14T00:46:31.215Z,99956.19
2022-09-14T00:49:05.779Z,99952.50
2022-09-14T00:51:38.032Z,99962.88
2022-09-14T00:54:08.524Z,99959.94
2022-09-14T00:56:39.101Z,99958.59
2022-09-14T00:59:16.189Z,99956.44
2022-09-14T01:01:46.501Z,99949.53
2022-09-14T01:04:18.730Z,99959.09
2022-09-14T01:06:58.499Z,99948.38
2022-09-14T01:09:40.899Z,99952.44
2022-09-14T01:12:20.809Z,99952.59
2022-09-14T01:15:00.528Z,99947.03
2022-09-14T01:17:39.168Z,99946.25
2022-09-14T01:20:22.340Z,99936.44
2022-09-14T01:23:10.408Z,99932.72
2022-09-14T01:26:08.331Z,99936.47
2022-09-14T01:28:46.310Z,99928.25
2022-09-14T01:31:23.637Z,99934.47
2022-09-14T01:34:01.170Z,99930.78
2022-09-14T01:36:34.458Z,99933.28
2022-09-14T01:39:05.481Z,99941.16
2022-09-14T01:41:37.601Z,99933.06
2022-09-14T01:44:15.200Z,99930.53
2022-09-14T01:46:48.848Z,99927.16
2022-09-14T01:49:24.088Z,99928.03
2022-09-14T01:52:00.250Z,99926.47
2022-09-14T01:54:36.030Z,99916.81
2022-09-14T01:57:10.998Z,99923.28
2022-09-14T01:59:46.110Z,99920.72
2022-09-14T02:02:22.336Z,99917.94
2022-09-14T02:04:56.110Z,99916.28
2022-09-14T02:07:26.763Z,99910.13
2022-09-14T02:09:58.098Z,99910.19
2022-09-14T02:12:28.479Z,99912.97
2022-09-14T02:14:59.989Z,99908.59
2022-09-14T02:17:31.830Z,99908.66
2022-09-14T02:20:04.443Z,99909.88
2022-09-14T02:22:34.861Z,99911.81
2022-09-14T02:25:05.935Z,99907.41
2022-09-14T02:27:36.138Z,99899.72
2022-09-14T02:30:09.130Z,99902.78
2022-09-14T02:32:49.650Z,99887.84
2022-09-14T02:35:24.809Z,99896.84
2022-09-14T02:38:03.524Z,99890.38
2022-09-14T02:40:37.357Z,99882.38
2022-09-14T02:43:22.801Z,99878.91
2022-09-14T02:46:02.835Z,99877.94
2022-09-14T02:48:42.404Z,99884.31
2022-09-14T02:51:22.510Z,99879.94
2022-09-14T02:53:59.769Z,99881.69
2022-09-14T02:56:31.418Z,99886.34
2022-09-14T02:59:01.648Z,99878.50
2022-09-14T03:01:33.421Z,99885.63
2022-09-14T03:04:03.931Z,99878.56
2022-09-14T03:06:34.210Z,99875.03
2022-09-14T03:09:04.860Z,99869.47
2022-09-14T03:11:34.852Z,99866.13
2022-09-14T03:14:05.030Z,99874.13
2022-09-14T03:16:36.396Z,99870.72
2022-09-14T03:19:06.908Z,99868.91
2022-09-14T03:21:39.513Z,99866.41
2022-09-14T03:24:09.886Z,99863.94
2022-09-14T03:26:39.934Z,99863.94
2022-09-14T03:29:10.156Z,99862.38
2022-09-14T03:31:41.588Z,99866.78
2022-09-14T03:34:13.274Z,99862.47
2022-09-14T03:36:43.194Z,99862.63
2022-09-14T03:39:13.524Z,99870.78
2022-09-14T03:41:43.375Z,99869.69
2022-09-14T03:44:13.304Z,99871.59
2022-09-14T03:46:46.748Z,99868.81
2022-09-14T03:49:17.006Z,99858.28
2022-09-14T03:51:47.295Z,99866.41
2022-09-14T03:54:17.245Z,99861.97
2022-09-14T03:56:47.195Z,99858.50
2022-09-14T03:59:17.364Z,99855.03
2022-09-14T04:01:49.229Z,99846.31
2022-09-14T04:04:19.454Z,99852.63
2022-09-14T04:06:49.496Z,99855.31
2022-09-14T04:09:19.758Z,99849.38
2022-09-14T04:11:50.320Z,99855.63
2022-09-14T04:14:20.225Z,99861.00
2022-09-14T04:16:51.745Z,99861.94
2022-09-14T04:19:21.885Z,99867.06
2022-09-14T04:21:51.955Z,99861.22
2022-09-14T04:24:23.837Z,99855.81
2022-09-14T04:26:56.515Z,99864.34
2022-09-14T04:29:26.499Z,99873.84
2022-09-14T04:31:57.862Z,99877.22
2022-09-14T04:34:28.271Z,99874.25
2022-09-14T04:36:58.255Z,99869.53
2022-09-14T04:39:28.208Z,99873.75
2022-09-14T04:41:58.415Z,99875.25
2022-09-14T04:44:28.422Z,99874.19
2022-09-14T04:46:59.957Z,99881.00
2022-09-14T04:49:30.243Z,99880.78
2022-09-14T04:52:00.654Z,99888.59
2022-09-14T04:54:30.902Z,99881.22
2022-09-14T04:57:00.773Z,99888.28
2022-09-14T04:59:30.721Z,99882.72
2022-09-14T05:02:02.545Z,99891.38
2022-09-14T05:04:32.602Z,99885.84
2022-09-14T05:07:02.722Z,99887.66
2022-09-14T05:09:32.674Z,99892.00
2022-09-14T05:12:03.032Z,99897.50
2022-09-14T05:14:33.486Z,99897.56
2022-09-14T05:17:05.111Z,99895.19
2022-09-14T05:19:35.411Z,99895.34
2022-09-14T05:22:05.494Z,99890.09
2022-09-14T05:24:36.221Z,99885.84
2022-09-14T05:27:06.671Z,99890.31
2022-09-14T05:29:36.663Z,99895.78
2022-09-14T05:32:08.612Z,99894.91
2022-09-14T05:34:38.513Z,99897.50
2022-09-14T05:37:08.671Z,99888.59
2022-09-14T05:39:38.770Z,99893.88
2022-09-14T05:42:09.091Z,99883.09
2022-09-14T05:44:39.122Z,99883.81
2022-09-14T05:47:10.472Z,99881.91
2022-09-14T05:49:40.632Z,99877.41
2022-09-14T05:52:10.533Z,99890.72
2022-09-14T05:54:40.406Z,99894.97
2022-09-14T05:57:13.282Z,99893.03
2022-09-14T05:59:43.894Z,99876.09
2022-09-14T06:02:18.150Z,99867.91
2022-09-14T06:04:49.146Z,99866.06
2022-09-14T06:07:19.412Z,99871.22
2022-09-14T06:09:49.621Z,99870.03
2022-09-14T06:12:19.953Z,99878.50
2022-09-14T06:14:50.252Z,99887.16
2022-09-14T06:17:21.552Z,99881.50
2022-09-14T06:19:52.712Z,99884.97
2022-09-14T06:22:23.213Z,99888.63
2022-09-14T06:24:54.186Z,99876.38
2022-09-14T06:27:24.334Z,99884.06
2022-09-14T06:29:55.085Z,99889.47
2022-09-14T06:32:27.872Z,99890.50
2022-09-14T06:34:58.353Z,99889.41
2022-09-14T06:37:28.801Z,99888.34
2022-09-14T06:40:00.139Z,99897.28
2022-09-14T06:42:32.821Z,99888.78
2022-09-14T06:45:03.393Z,99891.69
2022-09-14T06:47:36.181Z,99902.47
2022-09-14T06:50:07.353Z,99903.88
2022-09-14T06:52:40.532Z,99917.28
2022-09-14T06:55:11.473Z,99916.19
2022-09-14T06:57:43.155Z,99914.81
2022-09-14T07:00:15.950Z,99909.56
2022-09-14T07:02:50.360Z,99911.03
2022-09-14T07:05:23.107Z,99910.69
2022-09-14T07:07:54.018Z,99918.78
2022-09-14T07:10:24.241Z,99921.00
2022-09-14T07:12:54.621Z,99930.31
2022-09-14T07:15:24.468Z,99937.75
2022-09-14T07:17:56.221Z,99932.66
2022-09-14T07:20:26.480Z,99936.78
2022-09-14T07:22:57.119Z,99938.34
2022-09-14T07:25:26.943Z,99942.47
2022-09-14T07:27:57.091Z,99933.53
2022-09-14T07:30:28.355Z,99936.63
2022-09-14T07:33:00.073Z,99930.41
2022-09-14T07:35:29.632Z,99935.34
2022-09-14T07:37:59.872Z,99944.16
2022-09-14T07:40:29.792Z,99935.56
2022-09-14T07:43:02.152Z,99934.78
2022-09-14T07:45:32.117Z,99936.22
2022-09-14T07:48:04.082Z,99939.13
2022-09-14T07:50:34.205Z,99926.06
2022-09-14T07:53:04.330Z,99928.41
2022-09-14T07:55:34.432Z,99935.06
2022-09-14T07:58:04.450Z,99933.03
2022-09-14T08:00:34.813Z,99933.72
2022-09-14T08:03:06.343Z,99927.41
2022-09-14T08:05:36.411Z,99935.69
2022-09-14T08:08:06.282Z,99936.50
2022-09-14T08:10:37.670Z,99942.25
2022-09-14T08:13:07.892Z,99943.16
2022-09-14T08:15:38.030Z,99938.69
2022-09-14T08:18:11.700Z,99937.38
2022-09-14T08:20:41.571Z,99929.94
2022-09-14T08:23:11.801Z,99937.84
2022-09-14T08:25:41.672Z,99928.97
2022-09-14T08:28:11.772Z,99936.56
2022-09-14T08:30:41.892Z,99925.81
2022-09-14T08:33:13.182Z,99919.72
2022-09-14T08:36:01.624Z,99928.06
2022-09-14T08:38:32.083Z,99935.28
2022-09-14T08:41:13.672Z,99924.06
2022-09-14T08:43:43.235Z,99918.00
2022-09-14T08:46:24.261Z,99925.91
2022-09-14T08:48:55.962Z,99933.53
2022-09-14T08:51:26.821Z,99931.25
2022-09-14T08:53:59.785Z,99931.22
2022-09-14T08:56:35.592Z,99938.34
2022-09-14T08:59:29.158Z,99931.66
2022-09-14T09:02:14.640Z,99929.28
2022-09-14T09:04:54.192Z,99935.75
2022-09-14T09:07:34.379Z,99931.56
2022-09-14T09:10:07.915Z,99937.34
2022-09-14T09:12:41.001Z,99944.97
2022-09-14T09:15:22.278Z,99946.38
2022-09-14T09:17:57.150Z,99937.78
2022-09-14T09:20:32.078Z,99951.97
2022-09-14T09:23:13.562Z,99948.69
2022-09-14T09:25:58.040Z,99955.41
2022-09-14T09:28:30.880Z,99954.38
2022-09-14T09:31:05.691Z,99961.09
2022-09-14T09:33:56.129Z,99958.00
2022-09-14T09:36:30.679Z,99945.88
2022-09-14T09:39:04.995Z,99939.06
2022-09-14T09:41:46.108Z,99942.94
2022-09-14T09:44:17.047Z,99943.44
2022-09-14T09:46:53.269Z,99947.09
2022-09-14T09:49:26.626Z,99947.56
2022-09-14T09:51:58.143Z,99943.63
2022-09-14T09:54:32.310Z,99934.50
2022-09-14T09:57:05.049Z,99940.00
2022-09-14T09:59:37.560Z,99945.75
2022-09-14T10:02:25.302Z,99948.78
2022-09-14T10:05:01.901Z,99928.69
2022-09-14T10:07:35.288Z,99930.84
2022-09-14T10:10:08.311Z,99927.09
2022-09-14T10:12:39.950Z,99927.13
2022-09-14T10:15:27.173Z,99934.47
2022-09-14T10:18:06.659Z,99940.97
2022-09-14T10:20:38.421Z,99944.78
2022-09-14T10:23:31.331Z,99947.28
2022-09-14T10:26:26.909Z,99946.69
2022-09-14T10:29:16.959Z,99940.22
2022-09-14T10:31:48.764Z,99941.66
2022-09-14T10:34:21.943Z,99938.41
2022-09-14T10:36:59.410Z,99943.16
2022-09-14T10:39:41.132Z,99941.94
2022-09-14T10:42:19.606Z,99941.78
2022-09-14T10:45:10.552Z,99940.91
2022-09-14T10:48:07.112Z,99946.47
2022-09-14T10:50:46.972Z,99943.84
2022-09-14T10:53:34.020Z,99938.84
2022-09-14T10:56:10.452Z,99936.16
2022-09-14T10:58:56.342Z,99932.69
2022-09-14T11:01:39.761Z,99935.19
2022-09-14T11:04:27.598Z,99938.13
2022-09-14T11:07:08.240Z,99934.75
2022-09-14T11:09:46.280Z,99929.69
2022-09-14T11:12:26.641Z,99928.25
2022-09-14T11:15:08.901Z,99935.72
2022-09-14T11:17:53.850Z,99936.84
2022-09-14T11:20:32.702Z,99937.69
2022-09-14T11:23:19.902Z,99938.56
2022-09-14T11:25:56.201Z,99949.22
2022-09-14T11:28:32.631Z,99944.88
2022-09-14T11:31:08.411Z,99944.69
2022-09-14T11:33:42.343Z,99947.81
2022-09-14T11:36:21.440Z,99946.09
2022-09-14T11:38:54.918Z,99942.44
2022-09-14T11:41:30.949Z,99944.44
2022-09-14T11:44:06.630Z,99942.63
2022-09-14T11:46:39.761Z,99940.56
2022-09-14T11:49:19.062Z,99946.94
2022-09-14T11:51:53.932Z,99943.56
2022-09-14T11:54:25.310Z,99950.44
2022-09-14T11:57:00.193Z,99950.25
2022-09-14T11:59:54.370Z,99947.69
2022-09-14T12:03:02.460Z,99934.69
2022-09-14T12:05:35.460Z,99948.00
2022-09-14T12:08:26.694Z,99951.41
2022-09-14T12:11:05.273Z,99953.00
2022-09-14T12:13:35.862Z,99956.81
2022-09-14T12:16:09.496Z,99956.75
2022-09-14T12:18:41.914Z,99948.16
2022-09-14T12:21:23.092Z,99947.28
2022-09-14T12:23:58.080Z,99936.91
2022-09-14T12:26:34.170Z,99934.50
2022-09-14T12:29:24.737Z,99940.34
2022-09-14T12:32:22.143Z,99938.91
2022-09-14T12:35:30.979Z,99936.81
2022-09-14T12:38:01.492Z,99940.19
2022-09-14T12:40:37.688Z,99941.16
2022-09-14T12:43:50.321Z,99958.56
2022-09-14T12:46:40.437Z,99942.88
2022-09-14T12:49:40.188Z,99946.84
2022-09-14T12:52:30.310Z,99948.66
2022-09-14T12:55:20.272Z,99949.72
2022-09-14T12:58:09.009Z,99949.75
2022-09-14T13:00:54.790Z,99956.84
2022-09-14T13:03:51.827Z,99949.38
2022-09-14T13:06:24.700Z,99959.25
2022-09-14T13:08:58.654Z,99958.84
2022-09-14T13:11:34.329Z,99963.56
2022-09-14T13:14:05.065Z,99962.53
2022-09-14T13:16:44.497Z,99963.75
2022-09-14T13:19:27.350Z,99964.47
2022-09-14T13:22:00.368Z,99960.25
2022-09-14T13:24:35.076Z,99960.78
2022-09-14T13:27:06.652Z,99945.59
2022-09-14T13:29:37.440Z,99943.91
2022-09-14T13:32:08.261Z,99939.72
2022-09-14T13:34:41.331Z,99938.41
2022-09-14T13:37:16.424Z,99946.78
2022-09-14T13:39:52.635Z,99938.16
2022-09-14T13:42:23.636Z,99936.84
2022-09-14T13:44:54.035Z,99926.69
2022-09-14T13:47:25.870Z,99930.06
2022-09-14T13:49:57.770Z,99924.63
2022-09-14T13:53:00.471Z,99940.91
2022-09-14T13:55:29.275Z,99928.75
2022-09-14T13:58:21.770Z,99936.09
2022-09-14T14:01:04.070Z,99932.00
2022-09-14T14:03:38.238Z,99939.44
2022-09-14T14:06:25.535Z,99943.94
2022-09-14T14:09:00.974Z,99933.22
2022-09-14T14:11:35.614Z,99927.13
2022-09-14T14:14:28.834Z,99924.31
2022-09-14T14:17:33.142Z,99931.63
2022-09-14T14:20:18.584Z,99928.44
2022-09-14T14:22:59.329Z,99920.72
2022-09-14T14:25:42.139Z,99920.09
2022-09-14T14:28:20.122Z,99910.22
2022-09-14T14:30:53.376Z,99921.69
2022-09-14T14:33:25.319Z,99910.53
2022-09-14T14:35:57.057Z,99912.34
2022-09-14T14:38:27.584Z,99919.47
2022-09-14T14:40:59.046Z,99916.59
2022-09-14T14:43:30.192Z,99918.06
2022-09-14T14:46:02.187Z,99920.66
2022-09-14T14:48:32.754Z,99919.06
2022-09-14T14:51:02.714Z,99920.91
2022-09-14T14:53:34.964Z,99913.38
2022-09-14T14:56:07.293Z,99911.03
2022-09-14T14:58:46.428Z,99921.84
2022-09-14T15:01:16.937Z,99923.25
2022-09-14T15:03:49.861Z,99919.16
2022-09-14T15:06:25.272Z,99913.81
2022-09-14T15:08:58.464Z,99919.25
2022-09-14T15:11:33.237Z,99912.84
2022-09-14T15:14:08.115Z,99912.50
2022-09-14T15:16:41.205Z,99917.03
2022-09-14T15:19:12.603Z,99910.34
2022-09-14T15:21:44.821Z,99912.25
2022-09-14T15:24:16.331Z,99921.94
2022-09-14T15:26:47.906Z,99914.41
2022-09-14T15:29:20.284Z,99919.22
2022-09-14T15:31:50.280Z,99917.72
2022-09-14T15:34:22.972Z,99917.72
2022-09-14T15:36:55.415Z,99919.22
2022-09-14T15:39:35.149Z,99911.44
2022-09-14T15:42:08.714Z,99921.63
2022-09-14T15:44:42.748Z,99909.72
2022-09-14T15:47:15.954Z,99905.06
2022-09-14T15:49:46.362Z,99910.34
2022-09-14T15:52:17.764Z,99911.81
2022-09-14T15:54:51.422Z,99902.03
2022-09-14T15:57:24.034Z,99898.72
2022-09-14T15:59:57.916Z,99905.47
2022-09-14T16:02:30.253Z,99903.75
2022-09-14T16:05:00.583Z,99891.47
2022-09-14T16:07:36.665Z,99898.69
2022-09-14T16:10:11.979Z,99890.19
2022-09-14T16:12:44.274Z,99892.31
2022-09-14T16:15:18.019Z,99890.84
2022-09-14T16:17:53.430Z,99895.34
2022-09-14T16:20:25.794Z,99887.53
2022-09-14T16:22:58.804Z,99886.31
2022-09-14T16:25:35.919Z,99889.84
2022-09-14T16:28:10.110Z,99888.44
2022-09-14T16:30:40.406Z,99889.53
2022-09-14T16:33:10.605Z,99877.88
2022-09-14T16:35:41.484Z,99879.81
2022-09-14T16:38:11.675Z,99878.75
2022-09-14T16:40:43.444Z,99876.50
2022-09-14T16:43:17.141Z,99873.34
2022-09-14T16:45:47.416Z,99865.03
2022-09-14T16:48:19.086Z,99877.03
2022-09-14T16:50:54.970Z,99884.84
2022-09-14T16:53:26.482Z,99882.75
2022-09-14T16:56:03.612Z,99881.22
2022-09-14T16:58:36.675Z,99882.56
2022-09-14T17:01:09.123Z,99880.44
2022-09-14T17:03:41.040Z,99881.78
2022-09-14T17:06:16.958Z,99875.97
2022-09-14T17:08:49.272Z,99879.84
2022-09-14T17:11:20.972Z,99881.97
2022-09-14T17:13:56.173Z,99883.63
2022-09-14T17:16:29.377Z,99888.31
2022-09-14T17:19:04.304Z,99886.66
2022-09-14T17:21:36.593Z,99880.75
2022-09-14T17:24:08.491Z,99886.41
2022-09-14T17:26:42.990Z,99883.00
2022-09-14T17:29:17.933Z,99888.72
2022-09-14T17:31:48.763Z,99880.09
2022-09-14T17:34:19.398Z,99884.81
2022-09-14T17:36:50.723Z,99880.97
2022-09-14T17:39:23.578Z,99880.44
2022-09-14T17:41:56.541Z,99888.56
2022-09-14T17:44:32.431Z,99889.34
2022-09-14T17:47:05.952Z,99884.72
2022-09-14T17:49:37.384Z,99874.03
2022-09-14T17:52:09.814Z,99880.50
2022-09-14T17:54:41.257Z,99872.56
2022-09-14T17:57:12.456Z,99878.59
2022-09-14T17:59:44.484Z,99876.25
2022-09-14T18:02:16.884Z,99887.19
2022-09-14T18:04:49.005Z,99881.81
2022-09-14T18:07:19.546Z,99885.44
2022-09-14T18:09:56.539Z,99885.41
2022-09-14T18:12:31.353Z,99877.25
2022-09-14T18:17:36.621Z,99882.34
2022-09-14T18:20:09.338Z,99879.69
2022-09-14T18:22:39.913Z,99884.97
2022-09-14T18:25:11.520Z,99888.44
2022-09-14T18:27:41.354Z,99883.91
2022-09-14T18:30:16.536Z,99882.03
2022-09-14T18:32:47.194Z,99883.06
2022-09-14T18:35:17.573Z,99880.25
2022-09-14T18:37:47.565Z,99873.03
2022-09-14T18:40:20.260Z,99874.75
2022-09-14T18:42:50.757Z,99880.72
2022-09-14T18:45:22.262Z,99877.88
2022-09-14T18:47:55.047Z,99879.44
2022-09-14T18:50:27.193Z,99872.28
2022-09-14T18:52:59.186Z,99822.56
2022-09-14T18:55:28.923Z,99862.34
2022-09-14T18:57:59.175Z,99872.03
2022-09-14T19:00:31.727Z,99866.38
2022-09-14T19:03:04.846Z,99863.91
2022-09-14T19:05:34.726Z,99866.38
2022-09-14T19:08:05.046Z,99870.09
2022-09-14T19:10:37.081Z,99864.81
2022-09-14T19:13:09.794Z,99869.16
2022-09-14T19:15:43.680Z,99869.91
2022-09-14T19:18:15.412Z,99863.91
2022-09-14T19:21:05.878Z,99856.69
2022-09-14T19:23:37.876Z,99857.44
2022-09-14T19:26:09.513Z,99851.91
2022-09-14T19:28:43.105Z,99852.09
2022-09-14T19:31:17.607Z,99853.16
2022-09-14T19:33:47.994Z,99854.16
2022-09-14T19:36:20.445Z,99859.56
2022-09-14T19:38:52.462Z,99860.44
2022-09-14T19:41:25.942Z,99857.88
2022-09-14T19:43:58.179Z,99850.19
2022-09-14T19:46:31.468Z,99854.56
2022-09-14T19:49:03.895Z,99855.66
2022-09-14T19:51:33.824Z,99849.41
2022-09-14T19:54:06.341Z,99856.31
2022-09-14T19:56:37.679Z,99849.88
2022-09-14T19:59:09.235Z,99849.88
2022-09-14T20:01:41.922Z,99836.53
2022-09-14T20:04:13.016Z,99839.00
2022-09-14T20:06:45.427Z,99847.09
2022-09-14T20:09:19.778Z,99846.31
2022-09-14T20:11:52.731Z,99844.53
2022-09-14T20:14:25.673Z,99837.47
2022-09-14T20:17:00.044Z,99838.47
2022-09-14T20:19:31.368Z,99842.97
2022-09-14T20:22:01.344Z,99844.78
2022-09-14T20:24:32.801Z,99849.41
2022-09-14T20:27:03.712Z,99850.13
2022-09-14T20:29:36.104Z,99852.00
2022-09-14T20:32:08.251Z,99850.88
2022-09-14T20:34:38.641Z,99848.44
2022-09-14T20:37:08.563Z,99846.66
2022-09-14T20:39:38.645Z,99852.00
2022-09-14T20:42:09.089Z,99842.19
2022-09-14T20:44:39.045Z,99839.50
2022-09-14T20:47:10.507Z,99844.91
2022-09-14T20:49:40.735Z,99838.72
2022-09-14T20:52:10.711Z,99836.13
2022-09-14T20:54:41.023Z,99837.00
2022-09-14T20:57:10.936Z,99834.44
2022-09-14T20:59:40.950Z,99835.28
2022-09-14T21:02:13.293Z,99830.88
2022-09-14T21:04:43.499Z,99833.44
2022-09-14T21:07:13.716Z,99829.09
2022-09-14T21:09:44.035Z,99836.31
2022-09-14T21:12:15.513Z,99831.91
2022-09-14T21:14:48.240Z,99839.66
2022-09-14T21:17:20.052Z,99835.25
2022-09-14T21:19:50.063Z,99832.63
2022-09-14T21:22:21.377Z,99826.41
2022-09-14T21:24:51.253Z,99817.56
2022-09-14T21:27:21.322Z,99819.28
2022-09-14T21:29:52.052Z,99819.50
2022-09-14T21:32:23.644Z,99818.66
2022-09-14T21:34:53.275Z,99808.81
2022-09-14T21:37:26.756Z,99809.63
2022-09-14T21:39:56.870Z,99803.22
2022-09-14T21:42:27.603Z,99804.09
2022-09-14T21:44:57.492Z,99797.81
2022-09-14T21:47:28.947Z,99808.50
2022-09-14T21:49:59.217Z,99804.97
2022-09-14T21:52:29.136Z,99797.81
2022-09-14T21:54:59.008Z,99804.09
2022-09-14T21:57:29.222Z,99805.91
2022-09-14T21:59:59.055Z,99791.47
2022-09-14T22:02:30.532Z,99789.50
2022-09-14T22:05:00.755Z,99789.56
2022-09-14T22:07:30.706Z,99790.50
2022-09-14T22:10:00.897Z,99790.50
2022-09-14T22:12:32.463Z,99780.53
2022-09-14T22:15:02.707Z,99777.94
2022-09-14T22:17:34.335Z,99779.81
2022-09-14T22:20:05.259Z,99770.13
2022-09-14T22:22:35.275Z,99772.88
2022-09-14T22:25:06.733Z,99775.41
2022-09-14T22:27:37.195Z,99768.25
2022-09-14T22:30:08.514Z,99769.16
2022-09-14T22:32:39.914Z,99765.53
2022-09-14T22:35:10.603Z,99762.06
2022-09-14T22:37:40.603Z,99763.94
2022-09-14T22:40:11.596Z,99762.31
2022-09-14T22:42:41.992Z,99764.13
2022-09-14T22:45:12.532Z,99764.94
2022-09-14T22:47:43.943Z,99767.66
2022-09-14T22:50:14.114Z,99763.22
2022-09-14T22:52:44.167Z,99765.06
2022-09-14T22:55:15.451Z,99758.91
2022-09-14T22:57:45.699Z,99767.00
2022-09-14T23:00:16.603Z,99771.47
2022-09-14T23:02:48.280Z,99768.19
2022-09-14T23:05:17.985Z,99758.59
2022-09-14T23:07:48.295Z,99766.91
2022-09-14T23:10:18.411Z,99760.06
2022-09-14T23:12:48.310Z,99766.44
2022-09-14T23:15:18.894Z,99771.84
2022-09-14T23:17:52.182Z,99764.63
2022-09-14T23:20:22.602Z,99761.41
2022-09-14T23:22:52.575Z,99762.38
2022-09-14T23:25:22.819Z,99759.69
2022-09-14T23:27:52.772Z,99756.00
2022-09-14T23:30:22.802Z,99755.06
2022-09-14T23:32:54.591Z,99747.94
2022-09-14T23:35:24.221Z,99746.22
2022-09-14T23:37:54.367Z,99750.13
2022-09-14T23:40:24.557Z,99743.09
2022-09-14T23:42:54.848Z,99746.00
2022-09-14T23:45:25.074Z,99746.88
2022-09-14T23:47:56.443Z,99736.22
2022-09-14T23:50:26.753Z,99737.97
2022-09-14T23:52:57.870Z,99745.84
2022-09-14T23:55:28.115Z,99738.72
2022-09-14T23:57:58.123Z,99735.97
